Time;durP1;ratioP1;P1;durP2;ratioP2;P2;SDS_P1;SDS_P2;PMS_P1;PMS_P2;Temp;Humidity;BMP_temperature;BMP_pressure;BME280_temperature;BME280_humidity;BME280_pressure;Samples;Min_cycle;Max_cycle;Signal;HPM_P1;HPM_P2
2024/02/23 00:01:28;;;;;;;1.65;0.98;;;;;;;;;;4995995;28;20054;-64
2024/02/23 00:04:18;;;;;;;0.95;0.90;;;;;;;;;;4984453;28;20288;-65
2024/02/23 00:07:09;;;;;;;1.27;1.02;;;;;;;;;;4995370;28;20054;-65
2024/02/23 00:09:56;;;;;;;0.68;0.68;;;;;;;;;;4991565;28;20561;-64
2024/02/23 00:12:51;;;;;;;2.97;1.13;;;;;;;;;;4990426;28;20050;-63
2024/02/23 00:15:38;;;;;;;0.73;0.65;;;;;;;;;;4990362;28;20089;-64
2024/02/23 00:18:17;;;;;;;1.65;1.17;;;;;;;;;;4989974;28;20563;-64
2024/02/23 00:20:45;;;;;;;0.80;0.70;;;;;;;;;;4997278;28;20100;-66
2024/02/23 00:23:19;;;;;;;0.80;0.68;;;;;;;;;;4999074;28;20046;-66
2024/02/23 00:25:46;;;;;;;0.95;0.90;;;;;;;;;;4997838;28;20135;-67
2024/02/23 00:28:13;;;;;;;1.20;1.10;;;;;;;;;;5000429;28;20053;-65
2024/02/23 00:30:48;;;;;;;0.80;0.80;;;;;;;;;;4996472;28;20053;-65
2024/02/23 00:33:15;;;;;;;;;;;;;;;;;;4992843;28;20124;-65
2024/02/23 00:35:48;;;;;;;0.77;0.77;;;;;;;;;;4995950;28;20363;-65
2024/02/23 00:38:15;;;;;;;1.17;1.13;;;;;;;;;;4997786;28;20038;-65
2024/02/23 00:40:50;;;;;;;1.85;1.00;;;;;;;;;;4995820;28;20064;-51
2024/02/23 00:43:17;;;;;;;;;;;;;;;;;;4996032;28;20064;-52
2024/02/23 00:46:11;;;;;;;0.95;0.90;;;;;;;;;;4997336;28;19932;-51
2024/02/23 00:48:59;;;;;;;1.23;1.08;;;;;;;;;;4998090;28;20434;-47
2024/02/23 00:51:52;;;;;;;0.70;0.70;;;;;;;;;;4999234;28;20062;-51
2024/02/23 00:54:40;;;;;;;1.52;1.00;;;;;;;;;;4997060;28;20078;-50
2024/02/23 00:57:34;;;;;;;0.57;0.57;;;;;;;;;;4998436;28;20056;-64
2024/02/23 01:00:21;;;;;;;1.20;1.10;;;;;;;;;;4995253;28;20061;-65
2024/02/23 01:03:14;;;;;;;0.85;0.75;;;;;;;;;;4994161;28;20053;-65
2024/02/23 01:06:02;;;;;;;2.05;1.20;;;;;;;;;;4999905;28;20596;-64
2024/02/23 01:08:56;;;;;;;0.52;0.47;;;;;;;;;;4996714;28;20061;-62
2024/02/23 01:11:49;;;;;;;0.50;0.50;;;;;;;;;;4999391;28;20107;-62
2024/02/23 01:14:43;;;;;;;0.40;0.40;;;;;;;;;;4991908;28;21561;-62
2024/02/23 01:17:47;;;;;;;0.70;0.50;;;;;;;;;;4970945;28;20414;-62
2024/02/23 01:20:41;;;;;;;1.00;0.82;;;;;;;;;;4995279;28;20621;-62
2024/02/23 01:23:34;;;;;;;0.50;0.50;;;;;;;;;;4992447;28;20057;-62
2024/02/23 01:26:28;;;;;;;0.63;0.63;;;;;;;;;;4996271;28;20058;-60
2024/02/23 01:29:16;;;;;;;0.65;0.60;;;;;;;;;;4994942;28;21027;-59
2024/02/23 01:32:09;;;;;;;0.50;0.50;;;;;;;;;;4996670;28;20045;-57
2024/02/23 01:34:57;;;;;;;0.60;0.60;;;;;;;;;;4992604;28;20050;-58
2024/02/23 01:37:51;;;;;;;0.45;0.45;;;;;;;;;;4993069;28;20095;-55
2024/02/23 01:40:38;;;;;;;0.75;0.50;;;;;;;;;;4992373;28;20070;-65
2024/02/23 01:43:31;;;;;;;0.32;0.32;;;;;;;;;;4993058;28;20077;-65
2024/02/23 01:46:20;;;;;;;0.50;0.50;;;;;;;;;;4982459;28;20460;-65
2024/02/23 01:49:12;;;;;;;1.08;0.63;;;;;;;;;;4996156;28;20146;-64
2024/02/23 01:52:06;;;;;;;0.70;0.50;;;;;;;;;;4990098;28;20100;-65
2024/02/23 01:55:00;;;;;;;0.90;0.50;;;;;;;;;;4968544;28;20476;-62
2024/02/23 01:57:48;;;;;;;0.35;0.35;;;;;;;;;;4995857;28;20127;-57
2024/02/23 02:00:41;;;;;;;1.55;0.47;;;;;;;;;;4993862;28;20523;-58
2024/02/23 02:03:29;;;;;;;0.65;0.57;;;;;;;;;;4994175;28;21262;-58
2024/02/23 02:06:23;;;;;;;0.55;0.52;;;;;;;;;;4998297;28;20509;-58
2024/02/23 02:09:10;;;;;;;0.40;0.40;;;;;;;;;;4992544;28;20076;-57
2024/02/23 02:12:05;;;;;;;0.80;0.80;;;;;;;;;;4994198;28;20148;-59
2024/02/23 02:15:01;;;;;;;0.28;0.28;;;;;;;;;;4989371;28;20509;-61
2024/02/23 02:17:59;;;;;;;1.33;0.60;;;;;;;;;;4990594;28;20513;-61
2024/02/23 02:20:54;;;;;;;0.50;0.50;;;;;;;;;;4992975;28;20077;-62
2024/02/23 02:23:48;;;;;;;1.17;0.65;;;;;;;;;;4984907;28;20064;-59
2024/02/23 02:26:45;;;;;;;0.50;0.50;;;;;;;;;;4991721;28;20076;-59
2024/02/23 02:29:30;;;;;;;0.47;0.47;;;;;;;;;;4992735;28;20551;-61
2024/02/23 02:32:24;;;;;;;0.60;0.60;;;;;;;;;;4993823;28;20103;-60
2024/02/23 02:35:12;;;;;;;1.45;0.50;;;;;;;;;;4989451;28;20636;-58
2024/02/23 02:38:05;;;;;;;2.53;0.60;;;;;;;;;;4993780;28;20042;-59
2024/02/23 02:40:53;;;;;;;0.68;0.68;;;;;;;;;;4994187;28;20432;-57
2024/02/23 02:43:47;;;;;;;0.40;0.40;;;;;;;;;;4992961;28;20058;-57
2024/02/23 02:46:34;;;;;;;0.50;0.50;;;;;;;;;;4992952;28;20081;-60
2024/02/23 02:49:27;;;;;;;1.67;0.80;;;;;;;;;;4990177;28;20516;-56
2024/02/23 02:52:15;;;;;;;1.50;1.13;;;;;;;;;;4987184;28;20081;-62
2024/02/23 02:55:09;;;;;;;0.52;0.52;;;;;;;;;;4992448;28;20058;-51
2024/02/23 02:57:56;;;;;;;5.82;0.80;;;;;;;;;;4994151;28;20794;-51
2024/02/23 03:00:49;;;;;;;0.45;0.45;;;;;;;;;;4993004;28;20061;-50
2024/02/23 03:03:37;;;;;;;0.65;0.40;;;;;;;;;;4990426;28;20054;-48
2024/02/23 03:06:30;;;;;;;0.63;0.60;;;;;;;;;;4992666;28;20502;-49
2024/02/23 03:09:18;;;;;;;2.22;0.57;;;;;;;;;;4993151;28;20725;-61
2024/02/23 03:12:12;;;;;;;0.80;0.77;;;;;;;;;;4996296;28;20062;-61
2024/02/23 03:14:59;;;;;;;0.60;0.60;;;;;;;;;;4993435;28;20433;-62
2024/02/23 03:18:01;;;;;;;0.57;0.57;;;;;;;;;;4994562;28;20120;-62
2024/02/23 03:20:46;;;;;;;0.50;0.50;;;;;;;;;;4995605;28;20144;-66
2024/02/23 03:23:40;;;;;;;0.50;0.50;;;;;;;;;;4991130;28;20058;-66
2024/02/23 03:26:31;;;;;;;0.40;0.40;;;;;;;;;;4995767;28;20057;-67
2024/02/23 03:29:25;;;;;;;0.65;0.60;;;;;;;;;;4996257;28;20489;-66
2024/02/23 03:32:19;;;;;;;3.80;0.40;;;;;;;;;;4994085;28;20050;-67
2024/02/23 03:35:13;;;;;;;0.17;0.17;;;;;;;;;;4992480;28;20059;-66
2024/02/23 03:38:00;;;;;;;1.00;0.73;;;;;;;;;;4996289;28;20170;-61
2024/02/23 03:40:58;;;;;;;0.47;0.47;;;;;;;;;;4993186;28;20608;-61
2024/02/23 03:43:45;;;;;;;0.90;0.57;;;;;;;;;;4994072;28;20084;-62
2024/02/23 03:46:38;;;;;;;0.40;0.30;;;;;;;;;;4991237;28;20054;-62
2024/02/23 03:49:26;;;;;;;0.77;0.30;;;;;;;;;;4989493;28;20054;-58
2024/02/23 03:52:19;;;;;;;0.20;0.20;;;;;;;;;;4996968;28;20077;-66
2024/02/23 03:55:07;;;;;;;0.30;0.30;;;;;;;;;;4999186;28;20387;-66
2024/02/23 03:58:01;;;;;;;0.40;0.40;;;;;;;;;;4998620;28;20506;-66
2024/02/23 04:00:48;;;;;;;0.25;0.25;;;;;;;;;;4998315;28;20116;-67
2024/02/23 04:03:41;;;;;;;0.30;0.28;;;;;;;;;;4998109;28;20154;-66
2024/02/23 04:06:36;;;;;;;1.52;0.70;;;;;;;;;;4998002;28;20097;-59
2024/02/23 04:09:30;;;;;;;0.60;0.30;;;;;;;;;;4997473;28;20125;-57
2024/02/23 04:12:17;;;;;;;0.73;0.45;;;;;;;;;;4998540;28;20632;-58
2024/02/23 04:15:10;;;;;;;0.30;0.30;;;;;;;;;;4998612;28;20054;-58
2024/02/23 04:18:04;;;;;;;0.30;0.30;;;;;;;;;;5000502;28;20176;-63
2024/02/23 04:20:59;;;;;;;0.20;0.20;;;;;;;;;;4996138;28;20054;-53
2024/02/23 04:23:46;;;;;;;0.30;0.30;;;;;;;;;;4994235;28;20232;-58
2024/02/23 04:26:39;;;;;;;0.40;0.30;;;;;;;;;;5000223;28;20151;-56
2024/02/23 04:29:27;;;;;;;0.50;0.50;;;;;;;;;;4994550;28;20122;-59
2024/02/23 04:32:20;;;;;;;1.13;0.45;;;;;;;;;;4997178;28;20501;-58
2024/02/23 04:35:08;;;;;;;0.30;0.30;;;;;;;;;;4993971;28;20054;-62
2024/02/23 04:38:02;;;;;;;2.30;0.85;;;;;;;;;;4997377;28;20132;-62
2024/02/23 04:40:49;;;;;;;0.60;0.60;;;;;;;;;;4998137;28;20546;-62
2024/02/23 04:43:44;;;;;;;0.60;0.47;;;;;;;;;;4993033;28;20384;-61
2024/02/23 04:46:31;;;;;;;0.55;0.55;;;;;;;;;;4991317;28;20058;-61
2024/02/23 04:49:24;;;;;;;1.85;0.60;;;;;;;;;;4993842;28;20588;-62
2024/02/23 04:52:12;;;;;;;2.97;1.10;;;;;;;;;;4995166;28;20493;-62
2024/02/23 04:55:06;;;;;;;1.40;0.77;;;;;;;;;;4994087;28;20050;-61
2024/02/23 04:57:59;;;;;;;6.65;1.10;;;;;;;;;;4990898;28;20108;-61
2024/02/23 05:00:53;;;;;;;4.65;0.98;;;;;;;;;;4995851;28;20082;-61
2024/02/23 05:03:47;;;;;;;2.60;0.85;;;;;;;;;;4992835;28;20132;-66
2024/02/23 05:06:43;;;;;;;1.25;0.63;;;;;;;;;;4998159;28;20067;-66
2024/02/23 05:09:35;;;;;;;8.55;1.13;;;;;;;;;;4996318;28;20050;-65
2024/02/23 05:12:35;;;;;;;4.22;1.15;;;;;;;;;;4999609;28;20490;-66
2024/02/23 05:15:30;;;;;;;8.48;1.10;;;;;;;;;;4992568;28;20124;-65
2024/02/23 05:18:23;;;;;;;6.65;1.10;;;;;;;;;;4993863;28;20900;-64
2024/02/23 05:21:17;;;;;;;4.68;1.00;;;;;;;;;;4992966;28;20805;-64
2024/02/23 05:24:05;;;;;;;8.98;1.20;;;;;;;;;;4993046;28;20081;-65
2024/02/23 05:26:58;;;;;;;6.60;1.17;;;;;;;;;;4995655;28;20074;-64
2024/02/23 05:29:52;;;;;;;5.60;1.23;;;;;;;;;;4993473;28;20064;-65
2024/02/23 05:32:39;;;;;;;4.47;1.08;;;;;;;;;;4987443;28;20093;-61
2024/02/23 05:35:32;;;;;;;8.07;1.30;;;;;;;;;;4992067;28;20635;-57
2024/02/23 05:38:20;;;;;;;7.18;1.30;;;;;;;;;;4991726;28;20059;-58
2024/02/23 05:41:14;;;;;;;7.03;1.20;;;;;;;;;;4991746;28;20395;-58
2024/02/23 05:44:03;;;;;;;2.63;1.00;;;;;;;;;;4992120;28;20511;-58
2024/02/23 05:46:55;;;;;;;8.52;1.30;;;;;;;;;;4984300;28;20078;-59
2024/02/23 05:49:42;;;;;;;9.82;1.30;;;;;;;;;;4987953;28;20442;-57
2024/02/23 05:52:36;;;;;;;6.65;1.42;;;;;;;;;;4990029;28;20506;-44
2024/02/23 05:55:23;;;;;;;6.90;1.23;;;;;;;;;;4992401;28;20046;-61
2024/02/23 05:58:17;;;;;;;6.45;1.27;;;;;;;;;;4994952;28;20053;-62
2024/02/23 06:01:10;;;;;;;7.63;1.73;;;;;;;;;;4988894;28;20171;-60
2024/02/23 06:04:05;;;;;;;4.72;1.02;;;;;;;;;;4994549;28;20127;-61
2024/02/23 06:06:52;;;;;;;7.75;1.60;;;;;;;;;;4993091;28;21894;-61
2024/02/23 06:09:45;;;;;;;5.82;1.70;;;;;;;;;;4997552;28;20046;-60
2024/02/23 06:12:33;;;;;;;6.95;1.27;;;;;;;;;;4996155;28;20093;-63
2024/02/23 06:15:30;;;;;;;6.82;1.23;;;;;;;;;;4998254;28;20482;-64
2024/02/23 06:18:23;;;;;;;6.65;1.35;;;;;;;;;;4994465;28;20085;-63
2024/02/23 06:21:18;;;;;;;3.53;1.00;;;;;;;;;;4996434;28;20408;-62
2024/02/23 06:24:12;;;;;;;9.52;1.52;;;;;;;;;;4988223;28;21701;-64
2024/02/23 06:27:00;;;;;;;10.27;1.85;;;;;;;;;;4994338;28;20061;-61
2024/02/23 06:29:53;;;;;;;9.10;2.10;;;;;;;;;;4996597;28;20054;-67
2024/02/23 06:32:41;;;;;;;20.48;2.58;;;;;;;;;;4990936;28;20058;-64
2024/02/23 06:35:34;;;;;;;9.25;1.75;;;;;;;;;;4995061;28;20561;-64
2024/02/23 06:38:22;;;;;;;12.82;2.08;;;;;;;;;;4995030;28;20062;-64
2024/02/23 06:41:16;;;;;;;10.65;1.65;;;;;;;;;;4993571;28;20061;-64
2024/02/23 06:44:10;;;;;;;10.40;2.10;;;;;;;;;;4995537;28;20053;-64
2024/02/23 06:46:57;;;;;;;17.85;2.78;;;;;;;;;;4992684;28;20120;-54
2024/02/23 06:49:51;;;;;;;16.23;2.40;;;;;;;;;;4988630;28;20639;-52
2024/02/23 06:52:38;;;;;;;7.72;2.05;;;;;;;;;;4996222;28;20076;-53
2024/02/23 06:55:31;;;;;;;9.52;2.30;;;;;;;;;;4989848;28;20502;-56
2024/02/23 06:58:19;;;;;;;9.85;1.67;;;;;;;;;;4994001;28;20494;-55
2024/02/23 07:01:12;;;;;;;9.98;1.90;;;;;;;;;;4993920;28;20477;-55
2024/02/23 07:04:00;;;;;;;10.65;1.50;;;;;;;;;;4996682;28;20806;-64
2024/02/23 07:06:54;;;;;;;6.75;1.33;;;;;;;;;;4995116;28;20056;-52
2024/02/23 07:09:41;;;;;;;8.65;1.67;;;;;;;;;;4994217;28;20050;-50
2024/02/23 07:12:34;;;;;;;6.68;1.48;;;;;;;;;;4992828;28;20049;-49
2024/02/23 07:15:22;;;;;;;10.07;1.90;;;;;;;;;;4991401;28;20057;-51
2024/02/23 07:18:22;;;;;;;20.55;2.83;;;;;;;;;;4993878;28;20616;-55
2024/02/23 07:21:10;;;;;;;4.60;1.70;;;;;;;;;;4995947;28;20050;-51
2024/02/23 07:24:08;;;;;;;5.15;1.67;;;;;;;;;;4994775;28;20569;-57
2024/02/23 07:26:55;;;;;;;10.63;1.63;;;;;;;;;;4998114;28;20062;-65
2024/02/23 07:29:49;;;;;;;11.23;2.05;;;;;;;;;;4998907;28;20049;-66
2024/02/23 07:32:37;;;;;;;6.25;1.88;;;;;;;;;;4997832;28;20050;-65
2024/02/23 07:35:31;;;;;;;16.65;2.13;;;;;;;;;;4991508;28;20245;-66
2024/02/23 07:38:25;;;;;;;7.57;1.85;;;;;;;;;;4998248;28;20124;-67
2024/02/23 07:41:14;;;;;;;12.07;1.90;;;;;;;;;;4998624;28;20053;-51
2024/02/23 07:44:06;;;;;;;11.38;1.95;;;;;;;;;;5000548;28;20097;-64
2024/02/23 07:46:54;;;;;;;13.52;2.10;;;;;;;;;;4997940;28;20081;-63
2024/02/23 07:49:47;;;;;;;9.43;1.63;;;;;;;;;;4995134;28;20065;-64
2024/02/23 07:52:34;;;;;;;14.18;2.10;;;;;;;;;;4998785;28;20057;-64
2024/02/23 07:55:28;;;;;;;15.80;2.40;;;;;;;;;;4996240;28;20061;-64
2024/02/23 07:58:15;;;;;;;10.15;2.28;;;;;;;;;;4997943;28;20080;-64
2024/02/23 08:01:09;;;;;;;14.88;2.22;;;;;;;;;;4998893;28;20108;-59
2024/02/23 08:03:56;;;;;;;14.38;2.13;;;;;;;;;;4995523;28;20141;-52
2024/02/23 08:06:50;;;;;;;14.55;2.63;;;;;;;;;;4997688;28;20078;-49
2024/02/23 08:09:37;;;;;;;15.82;2.83;;;;;;;;;;4998678;28;20061;-53
2024/02/23 08:12:30;;;;;;;13.55;2.30;;;;;;;;;;4997323;28;20559;-53
2024/02/23 08:15:18;;;;;;;18.60;2.90;;;;;;;;;;4997546;28;20417;-50
2024/02/23 08:18:18;;;;;;;20.08;2.70;;;;;;;;;;4993858;28;20054;-58
2024/02/23 08:21:05;;;;;;;22.00;2.67;;;;;;;;;;4999292;28;20073;-64
2024/02/23 08:24:00;;;;;;;17.42;2.42;;;;;;;;;;5000873;28;20116;-63
2024/02/23 08:26:48;;;;;;;18.95;2.45;;;;;;;;;;4997327;28;20642;-64
2024/02/23 08:29:41;;;;;;;17.17;2.13;;;;;;;;;;4999157;28;20054;-64
2024/02/23 08:32:34;;;;;;;18.20;2.78;;;;;;;;;;5000872;28;20050;-64
2024/02/23 08:35:29;;;;;;;24.15;3.42;;;;;;;;;;4996256;28;20145;-56
2024/02/23 08:38:16;;;;;;;20.30;3.42;;;;;;;;;;4997745;28;20426;-66
2024/02/23 08:41:09;;;;;;;9.80;2.22;;;;;;;;;;4997022;28;20046;-61
2024/02/23 08:44:04;;;;;;;21.08;2.55;;;;;;;;;;4997135;28;20077;-61
2024/02/23 08:46:51;;;;;;;18.27;2.33;;;;;;;;;;4998257;28;20116;-60
2024/02/23 08:49:45;;;;;;;10.75;2.80;;;;;;;;;;5001479;28;20128;-59
2024/02/23 08:52:32;;;;;;;14.07;2.05;;;;;;;;;;4998543;28;20042;-60
2024/02/23 08:55:26;;;;;;;9.93;1.83;;;;;;;;;;4994597;28;20133;-61
2024/02/23 08:58:13;;;;;;;18.75;3.05;;;;;;;;;;4997602;28;20054;-63
2024/02/23 09:01:06;;;;;;;14.25;2.25;;;;;;;;;;4998189;28;20073;-63
2024/02/23 09:03:55;;;;;;;17.08;2.25;;;;;;;;;;4994250;28;20108;-63
2024/02/23 09:06:55;;;;;;;11.70;2.10;;;;;;;;;;4997748;28;20465;-63
2024/02/23 09:09:43;;;;;;;13.45;2.00;;;;;;;;;;4995206;28;20054;-63
2024/02/23 09:12:36;;;;;;;8.85;1.73;;;;;;;;;;4995961;28;20053;-50
2024/02/23 09:15:24;;;;;;;13.77;2.72;;;;;;;;;;4996631;28;20048;-61
2024/02/23 09:18:24;;;;;;;8.93;1.67;;;;;;;;;;4996437;28;20080;-61
2024/02/23 09:21:18;;;;;;;6.00;1.70;;;;;;;;;;4986213;28;20147;-61
2024/02/23 09:24:12;;;;;;;5.15;1.67;;;;;;;;;;4997695;28;20058;-61
2024/02/23 09:26:59;;;;;;;6.72;1.30;;;;;;;;;;4997585;28;20101;-60
2024/02/23 09:29:52;;;;;;;5.05;1.20;;;;;;;;;;4997846;28;20571;-58
2024/02/23 09:32:46;;;;;;;10.23;1.95;;;;;;;;;;4998252;28;20576;-59
2024/02/23 09:35:34;;;;;;;17.00;3.08;;;;;;;;;;4996411;28;20057;-62
2024/02/23 09:38:28;;;;;;;13.93;2.88;;;;;;;;;;4997766;28;20136;-60
2024/02/23 09:41:24;;;;;;;15.57;3.15;;;;;;;;;;4997571;28;20464;-58
2024/02/23 09:44:18;;;;;;;21.67;3.38;;;;;;;;;;4994895;28;20100;-61
2024/02/23 09:47:10;;;;;;;20.13;3.17;;;;;;;;;;4994812;28;20504;-61
2024/02/23 09:50:05;;;;;;;17.05;2.85;;;;;;;;;;4996230;28;20417;-67
2024/02/23 09:52:52;;;;;;;21.52;3.20;;;;;;;;;;4993857;28;20508;-63
2024/02/23 09:55:46;;;;;;;19.08;3.20;;;;;;;;;;4995849;28;20104;-63
2024/02/23 09:58:34;;;;;;;22.23;4.10;;;;;;;;;;4997702;28;20054;-63
2024/02/23 10:01:33;;;;;;;26.58;3.20;;;;;;;;;;4991160;28;20060;-64
2024/02/23 10:04:20;;;;;;;21.42;3.83;;;;;;;;;;4997889;28;20088;-63
2024/02/23 10:07:16;;;;;;;20.55;3.33;;;;;;;;;;4994487;28;20166;-57
2024/02/23 10:10:07;;;;;;;16.92;3.05;;;;;;;;;;4995340;28;20046;-67
2024/02/23 10:13:01;;;;;;;17.20;3.40;;;;;;;;;;4995035;28;20050;-47
2024/02/23 10:15:55;;;;;;;16.15;3.03;;;;;;;;;;4990649;28;20062;-53
2024/02/23 10:18:49;;;;;;;13.60;2.63;;;;;;;;;;4995582;28;20050;-50
2024/02/23 10:21:45;;;;;;;15.93;3.03;;;;;;;;;;4994584;28;20049;-51
2024/02/23 10:24:32;;;;;;;18.63;2.97;;;;;;;;;;4990637;28;20053;-52
2024/02/23 10:27:27;;;;;;;18.80;2.78;;;;;;;;;;4993343;28;21191;-51
2024/02/23 10:30:21;;;;;;;17.95;3.03;;;;;;;;;;4996050;28;20053;-52
2024/02/23 10:33:15;;;;;;;30.33;3.50;;;;;;;;;;4996320;28;20501;-50
2024/02/23 10:36:09;;;;;;;22.70;3.38;;;;;;;;;;4993873;28;20070;-46
2024/02/23 10:39:04;;;;;;;21.55;2.60;;;;;;;;;;4997660;28;20049;-49
2024/02/23 10:42:01;;;;;;;24.00;3.17;;;;;;;;;;4998535;28;20056;-50
2024/02/23 10:44:55;;;;;;;17.48;2.83;;;;;;;;;;4996008;28;20796;-63
2024/02/23 10:47:42;;;;;;;19.05;3.00;;;;;;;;;;4994897;28;20085;-57
2024/02/23 10:50:37;;;;;;;16.85;2.95;;;;;;;;;;4995943;28;20553;-60
2024/02/23 10:53:23;;;;;;;20.83;3.58;;;;;;;;;;4996080;28;20053;-60
2024/02/23 10:56:18;;;;;;;19.08;3.28;;;;;;;;;;4988864;28;20049;-59
2024/02/23 10:59:07;;;;;;;21.20;3.35;;;;;;;;;;4996246;28;20058;-58
2024/02/23 11:02:00;;;;;;;19.92;2.75;;;;;;;;;;4993394;28;20054;-59
2024/02/23 11:04:50;;;;;;;27.85;3.55;;;;;;;;;;4996757;28;20054;-58
2024/02/23 11:07:51;;;;;;;25.10;3.60;;;;;;;;;;4995760;28;20054;-61
2024/02/23 11:10:51;;;;;;;23.48;2.78;;;;;;;;;;4993187;28;20065;-61
2024/02/23 11:13:45;;;;;;;16.60;3.58;;;;;;;;;;4997777;28;20050;-61
2024/02/23 11:16:33;;;;;;;22.67;3.78;;;;;;;;;;4981686;28;20222;-61
2024/02/23 11:19:36;;;;;;;24.35;3.55;;;;;;;;;;4995498;28;20460;-62
2024/02/23 11:22:34;;;;;;;15.23;2.55;;;;;;;;;;4997652;28;20089;-51
2024/02/23 11:25:28;;;;;;;24.08;3.45;;;;;;;;;;4997443;28;20132;-55
2024/02/23 11:28:27;;;;;;;16.45;3.38;;;;;;;;;;4992437;28;20049;-55
2024/02/23 11:31:25;;;;;;;15.30;2.53;;;;;;;;;;4994344;28;20054;-56
2024/02/23 11:34:13;;;;;;;22.33;3.45;;;;;;;;;;4994773;28;20123;-55
2024/02/23 11:37:10;;;;;;;19.13;3.60;;;;;;;;;;4995973;28;20063;-52
2024/02/23 11:39:58;;;;;;;17.48;2.60;;;;;;;;;;4995376;28;20077;-59
2024/02/23 11:42:52;;;;;;;17.67;2.97;;;;;;;;;;4992146;28;20054;-52
2024/02/23 11:45:39;;;;;;;23.58;3.40;;;;;;;;;;4990727;28;20152;-56
2024/02/23 11:48:32;;;;;;;15.70;2.78;;;;;;;;;;4992570;28;20046;-53
2024/02/23 11:51:21;;;;;;;24.60;3.22;;;;;;;;;;4996400;28;20107;-51
2024/02/23 11:54:15;;;;;;;17.20;2.88;;;;;;;;;;4992439;28;20053;-51
2024/02/23 11:57:02;;;;;;;15.52;2.17;;;;;;;;;;4996068;28;20086;-53
2024/02/23 12:00:10;;;;;;;13.55;2.90;;;;;;;;;;4992194;28;20101;-58
2024/02/23 12:02:56;;;;;;;14.52;2.22;;;;;;;;;;4992482;28;20069;-58
2024/02/23 12:05:50;;;;;;;17.58;2.58;;;;;;;;;;4996075;28;20061;-58
2024/02/23 12:08:38;;;;;;;14.20;3.10;;;;;;;;;;4997402;28;20116;-57
2024/02/23 12:11:32;;;;;;;13.30;2.90;;;;;;;;;;4993062;28;20136;-56
2024/02/23 12:14:19;;;;;;;11.98;2.63;;;;;;;;;;4993487;28;20343;-58
2024/02/23 12:17:19;;;;;;;12.68;2.70;;;;;;;;;;4999330;28;20559;-51
2024/02/23 12:20:13;;;;;;;19.65;4.25;;;;;;;;;;4998858;28;20505;-62
2024/02/23 12:23:10;;;;;;;24.45;4.43;;;;;;;;;;5000304;28;20085;-62
2024/02/23 12:25:56;;;;;;;18.80;2.80;;;;;;;;;;4998755;28;20046;-61
2024/02/23 12:28:51;;;;;;;21.50;3.60;;;;;;;;;;4997353;28;20062;-61
2024/02/23 12:31:38;;;;;;;19.65;3.13;;;;;;;;;;4997246;28;20158;-61
2024/02/23 12:34:33;;;;;;;20.40;3.40;;;;;;;;;;4998865;28;20058;-46
2024/02/23 12:37:27;;;;;;;24.90;4.05;;;;;;;;;;5000980;28;20449;-63
2024/02/23 12:40:20;;;;;;;22.05;3.47;;;;;;;;;;4997898;28;20402;-56
2024/02/23 12:43:08;;;;;;;26.58;4.82;;;;;;;;;;4999205;28;20057;-58
2024/02/23 12:46:04;;;;;;;28.25;4.57;;;;;;;;;;4986961;28;20167;-54
2024/02/23 12:48:52;;;;;;;26.08;4.68;;;;;;;;;;5000950;28;20060;-57
2024/02/23 12:51:46;;;;;;;21.30;3.03;;;;;;;;;;4997086;28;20054;-56
2024/02/23 12:54:34;;;;;;;28.98;4.30;;;;;;;;;;4995219;28;20198;-61
2024/02/23 12:57:27;;;;;;;24.17;3.88;;;;;;;;;;4997402;28;20104;-59
2024/02/23 13:00:14;;;;;;;20.02;3.97;;;;;;;;;;4998199;28;20116;-59
2024/02/23 13:03:08;;;;;;;25.00;3.60;;;;;;;;;;4997348;28;20135;-56
2024/02/23 13:05:55;;;;;;;25.50;3.53;;;;;;;;;;4995697;28;20050;-56
2024/02/23 13:08:50;;;;;;;30.02;4.15;;;;;;;;;;4999880;28;20137;-59
2024/02/23 13:11:38;;;;;;;23.42;3.47;;;;;;;;;;4997191;28;20058;-46
2024/02/23 13:14:32;;;;;;;22.20;3.35;;;;;;;;;;4999674;28;20053;-65
2024/02/23 13:17:19;;;;;;;23.40;3.72;;;;;;;;;;4994253;28;20172;-64
2024/02/23 13:20:19;;;;;;;20.77;3.47;;;;;;;;;;4960818;28;23213;-63
2024/02/23 13:23:08;;;;;;;20.65;3.03;;;;;;;;;;4962049;28;20117;-64
2024/02/23 13:26:02;;;;;;;16.25;2.97;;;;;;;;;;4962891;28;20473;-65
2024/02/23 13:28:48;;;;;;;16.65;2.92;;;;;;;;;;4960825;28;20514;-65
2024/02/23 13:31:42;;;;;;;16.65;2.97;;;;;;;;;;4962248;28;20070;-64
2024/02/23 13:34:30;;;;;;;18.42;2.53;;;;;;;;;;4962212;28;20055;-51
2024/02/23 13:37:26;;;;;;;22.70;3.42;;;;;;;;;;4962702;28;20054;-49
2024/02/23 13:40:11;;;;;;;13.95;2.67;;;;;;;;;;4964955;28;20061;-51
2024/02/23 13:43:05;;;;;;;21.95;3.58;;;;;;;;;;4958606;28;20051;-49
2024/02/23 13:45:52;;;;;;;12.52;2.15;;;;;;;;;;4957831;28;20050;-50
2024/02/23 13:48:51;;;;;;;13.90;1.75;;;;;;;;;;4962745;28;20510;-61
2024/02/23 13:51:37;;;;;;;11.05;2.05;;;;;;;;;;4959004;28;20065;-64
2024/02/23 13:54:31;;;;;;;11.10;2.15;;;;;;;;;;4962594;28;20059;-64
2024/02/23 13:57:18;;;;;;;9.40;1.63;;;;;;;;;;4959884;28;20156;-65
2024/02/23 14:00:12;;;;;;;11.38;1.80;;;;;;;;;;4955920;28;20059;-65
2024/02/23 14:02:59;;;;;;;10.20;1.75;;;;;;;;;;4961012;28;20185;-65
2024/02/23 14:05:53;;;;;;;15.60;2.80;;;;;;;;;;4956698;28;20082;-64
2024/02/23 14:08:42;;;;;;;7.07;1.50;;;;;;;;;;4960883;28;20051;-45
2024/02/23 14:11:34;;;;;;;6.78;1.77;;;;;;;;;;4960188;28;20047;-49
2024/02/23 14:14:22;;;;;;;9.50;1.42;;;;;;;;;;4963453;28;20832;-45
2024/02/23 14:17:15;;;;;;;4.75;1.13;;;;;;;;;;4956023;28;20567;-46
2024/02/23 14:20:09;;;;;;;5.47;1.15;;;;;;;;;;4995196;28;20070;-49
2024/02/23 14:23:03;;;;;;;7.18;1.00;;;;;;;;;;4994179;28;20058;-46
2024/02/23 14:25:51;;;;;;;7.47;1.60;;;;;;;;;;4994428;28;20061;-65
2024/02/23 14:28:44;;;;;;;6.35;1.38;;;;;;;;;;4994424;28;20136;-59
2024/02/23 14:31:32;;;;;;;11.27;1.40;;;;;;;;;;4997328;28;20054;-59
2024/02/23 14:34:25;;;;;;;10.75;2.08;;;;;;;;;;4995451;28;20405;-55
2024/02/23 14:37:12;;;;;;;10.38;2.08;;;;;;;;;;4998877;28;20057;-57
2024/02/23 14:40:06;;;;;;;9.75;1.58;;;;;;;;;;4993053;28;20046;-60
2024/02/23 14:42:53;;;;;;;8.02;1.58;;;;;;;;;;4997455;28;20068;-55
2024/02/23 14:45:47;;;;;;;4.47;1.50;;;;;;;;;;4992383;28;20076;-64
2024/02/23 14:48:34;;;;;;;8.60;1.95;;;;;;;;;;4997019;28;20125;-62
2024/02/23 14:51:29;;;;;;;16.23;2.50;;;;;;;;;;4940574;28;20236;-63
2024/02/23 14:54:16;;;;;;;14.32;2.28;;;;;;;;;;4996532;28;20049;-63
2024/02/23 14:57:10;;;;;;;15.65;2.40;;;;;;;;;;4988937;28;20061;-63
2024/02/23 14:59:57;;;;;;;23.63;2.72;;;;;;;;;;4995688;28;20588;-62
2024/02/23 15:02:51;;;;;;;19.80;2.78;;;;;;;;;;4992003;28;20065;-63
2024/02/23 15:05:38;;;;;;;21.35;2.88;;;;;;;;;;4993461;28;20461;-52
2024/02/23 15:08:32;;;;;;;15.82;2.97;;;;;;;;;;4982835;28;20135;-56
2024/02/23 15:11:19;;;;;;;18.77;2.60;;;;;;;;;;4990015;28;20076;-54
2024/02/23 15:14:15;;;;;;;18.23;2.97;;;;;;;;;;4996513;28;20046;-57
2024/02/23 15:17:00;;;;;;;18.08;3.03;;;;;;;;;;4994080;28;20104;-54
2024/02/23 15:20:00;;;;;;;17.92;2.65;;;;;;;;;;4993322;28;20072;-67
2024/02/23 15:22:49;;;;;;;20.80;2.63;;;;;;;;;;4993997;28;20054;-53
2024/02/23 15:25:42;;;;;;;13.43;3.10;;;;;;;;;;4991176;28;20559;-51
2024/02/23 15:28:38;;;;;;;10.30;2.05;;;;;;;;;;4992894;28;20506;-50
2024/02/23 15:31:32;;;;;;;18.15;3.50;;;;;;;;;;4994937;28;20516;-49
2024/02/23 15:34:26;;;;;;;15.23;2.55;;;;;;;;;;4975612;28;20434;-48
2024/02/23 15:37:13;;;;;;;19.27;3.10;;;;;;;;;;4986510;28;20057;-53
2024/02/23 15:40:07;;;;;;;19.17;3.58;;;;;;;;;;4988848;28;20073;-47
2024/02/23 15:43:01;;;;;;;18.35;3.03;;;;;;;;;;4991414;28;20085;-66
2024/02/23 15:46:01;;;;;;;19.58;3.25;;;;;;;;;;4988416;28;20057;-65
2024/02/23 15:48:49;;;;;;;18.52;3.53;;;;;;;;;;4990842;28;20477;-65
2024/02/23 15:52:09;;;;;;;22.50;3.78;;;;;;;;;;4989401;28;20050;-66
2024/02/23 15:54:57;;;;;;;26.00;4.70;;;;;;;;;;4994805;28;20050;-65
2024/02/23 15:57:51;;;;;;;20.02;3.25;;;;;;;;;;4992341;28;20066;-60
2024/02/23 16:00:38;;;;;;;27.00;4.22;;;;;;;;;;4989955;28;20054;-63
2024/02/23 16:03:32;;;;;;;27.77;4.85;;;;;;;;;;4994556;28;20497;-63
2024/02/23 16:06:19;;;;;;;28.33;4.13;;;;;;;;;;4995318;28;20054;-63
2024/02/23 16:09:15;;;;;;;26.90;4.72;;;;;;;;;;4995792;28;20062;-63
2024/02/23 16:12:00;;;;;;;21.75;4.38;;;;;;;;;;4990791;28;20069;-63
2024/02/23 16:14:56;;;;;;;26.58;3.67;;;;;;;;;;4995091;28;20060;-52
2024/02/23 16:17:41;;;;;;;29.20;4.85;;;;;;;;;;4995035;28;20059;-57
2024/02/23 16:20:41;;;;;;;25.13;5.28;;;;;;;;;;4973766;28;20062;-64
2024/02/23 16:23:29;;;;;;;29.38;8.05;;;;;;;;;;4973727;28;20506;-63
2024/02/23 16:26:23;;;;;;;27.88;4.07;;;;;;;;;;4972362;28;20521;-63
2024/02/23 16:29:10;;;;;;;21.73;4.28;;;;;;;;;;4974464;28;22137;-63
2024/02/23 16:32:05;;;;;;;29.48;4.45;;;;;;;;;;4978122;28;20494;-62
2024/02/23 16:34:52;;;;;;;23.90;3.63;;;;;;;;;;4967648;28;20078;-57
2024/02/23 16:37:46;;;;;;;14.02;3.03;;;;;;;;;;4976397;28;20154;-50
2024/02/23 16:40:33;;;;;;;29.05;3.55;;;;;;;;;;4975445;28;20194;-53
2024/02/23 16:43:27;;;;;;;26.98;5.28;;;;;;;;;;4969548;28;20065;-53
2024/02/23 16:46:14;;;;;;;26.90;3.90;;;;;;;;;;4976498;28;21037;-51
2024/02/23 16:49:08;;;;;;;20.75;5.35;;;;;;;;;;4972709;28;20561;-53
2024/02/23 16:51:55;;;;;;;30.75;5.00;;;;;;;;;;4971270;28;20062;-63
2024/02/23 16:54:49;;;;;;;24.05;4.05;;;;;;;;;;4971451;28;20514;-57
2024/02/23 16:57:36;;;;;;;25.92;5.05;;;;;;;;;;4971029;28;20116;-56